Time;durP1;ratioP1;P1;durP2;ratioP2;P2;SDS_P1;SDS_P2;PMS_P1;PMS_P2;Temp;Humidity;BMP_temperature;BMP_pressure;BME280_temperature;BME280_humidity;BME280_pressure;Samples;Min_cycle;Max_cycle;Signal;HPM_P1;HPM_P2
2022/05/22 00:00:15;;;;;;;;;;;;;;;14.47;73.33;99153.94;5073352;28;926;-59
2022/05/22 00:02:42;;;;;;;;;;;;;;;14.41;73.89;99147.38;5073459;28;790;-59
2022/05/22 00:05:11;;;;;;;;;;;;;;;14.35;73.89;99140.81;5073356;28;887;-58
2022/05/22 00:07:38;;;;;;;;;;;;;;;14.33;74.28;99134.13;5073263;28;950;-59
2022/05/22 00:10:05;;;;;;;;;;;;;;;14.27;74.69;99139.47;5073122;28;1886;-59
2022/05/22 00:12:31;;;;;;;;;;;;;;;14.21;74.86;99142.03;5073210;28;829;-58
2022/05/22 00:14:58;;;;;;;;;;;;;;;14.18;75.19;99136.56;5073074;28;877;-59
2022/05/22 00:17:24;;;;;;;;;;;;;;;14.25;75.29;99139.13;5073086;28;829;-58
2022/05/22 00:19:51;;;;;;;;;;;;;;;14.32;75.29;99132.56;5073066;28;853;-58
2022/05/22 00:22:18;;;;;;;;;;;;;;;14.37;75.14;99129.25;5073027;28;810;-58
2022/05/22 00:24:45;;;;;;;;;;;;;;;14.43;75.04;99125.47;5072990;28;822;-59
2022/05/22 00:27:12;;;;;;;;;;;;;;;14.35;75.42;99120.56;5073118;28;913;-58
2022/05/22 00:29:39;;;;;;;;;;;;;;;14.27;75.73;99114.44;5072697;28;1957;-59
2022/05/22 00:32:06;;;;;;;;;;;;;;;14.15;76.34;99120.81;5072710;28;929;-59
2022/05/22 00:34:33;;;;;;;;;;;;;;;14.14;76.50;99119.22;5054811;28;1571;-59
2022/05/22 00:37:00;;;;;;;;;;;;;;;14.12;76.22;99105.00;5072761;28;834;-59
2022/05/22 00:39:26;;;;;;;;;;;;;;;14.04;76.43;99108.00;5072647;28;1218;-59
2022/05/22 00:41:54;;;;;;;;;;;;;;;14.15;76.19;99104.91;5072545;28;806;-58
2022/05/22 00:44:21;;;;;;;;;;;;;;;14.27;75.50;99098.56;5072400;28;898;-59
2022/05/22 00:46:49;;;;;;;;;;;;;;;14.36;75.14;99097.09;5072527;28;969;-59
2022/05/22 00:49:18;;;;;;;;;;;;;;;14.37;74.82;99095.88;5072280;28;1426;-58
2022/05/22 00:51:53;;;;;;;;;;;;;;;14.20;75.54;99093.22;5072380;28;1914;-59
2022/05/22 00:54:31;;;;;;;;;;;;;;;13.98;76.38;99090.31;5072361;28;1145;-59
2022/05/22 00:57:01;;;;;;;;;;;;;;;13.78;77.29;99092.50;5072389;28;897;-59
2022/05/22 00:59:32;;;;;;;;;;;;;;;13.59;77.82;99088.69;5072396;28;954;-59
2022/05/22 01:01:58;;;;;;;;;;;;;;;13.42;78.42;99093.50;5054326;28;1634;-59
2022/05/22 01:04:27;;;;;;;;;;;;;;;13.31;79.28;99088.25;5072179;28;897;-59
2022/05/22 01:06:54;;;;;;;;;;;;;;;13.43;79.44;99086.75;5071925;28;918;-59
2022/05/22 01:09:21;;;;;;;;;;;;;;;13.59;78.88;99081.16;5054310;28;889;-59
2022/05/22 01:11:49;;;;;;;;;;;;;;;13.73;78.34;99071.63;5071801;28;1886;-59
2022/05/22 01:14:21;;;;;;;;;;;;;;;13.80;78.17;99078.94;5072082;28;810;-59
2022/05/22 01:16:48;;;;;;;;;;;;;;;13.64;78.18;99063.16;5071908;28;909;-59
2022/05/22 01:19:17;;;;;;;;;;;;;;;13.46;78.88;99066.44;5071857;28;886;-58
2022/05/22 01:21:59;;;;;;;;;;;;;;;13.30;79.90;99058.19;5072094;28;861;-59
2022/05/22 01:24:26;;;;;;;;;;;;;;;13.18;80.17;99056.88;5071923;28;818;-59
2022/05/22 01:26:54;;;;;;;;;;;;;;;13.04;80.82;99053.28;5072052;28;926;-59
2022/05/22 01:29:21;;;;;;;;;;;;;;;12.87;81.55;99047.00;5071721;28;814;-59
2022/05/22 01:31:47;;;;;;;;;;;;;;;12.77;82.29;99041.72;5071767;28;1953;-58
2022/05/22 01:34:13;;;;;;;;;;;;;;;12.72;82.51;99045.81;5071664;28;877;-58
2022/05/22 01:36:41;;;;;;;;;;;;;;;12.72;82.63;99039.50;5071667;28;913;-59
2022/05/22 01:39:08;;;;;;;;;;;;;;;12.73;82.52;99041.03;5071858;28;865;-59
2022/05/22 01:41:35;;;;;;;;;;;;;;;12.63;83.24;99029.81;5071577;28;794;-59
2022/05/22 01:44:01;;;;;;;;;;;;;;;12.55;83.52;99033.19;5071649;28;806;-59
2022/05/22 01:46:28;;;;;;;;;;;;;;;12.58;84.12;99037.84;5071585;28;849;-59
2022/05/22 01:48:55;;;;;;;;;;;;;;;12.63;83.91;99029.00;5071369;28;1296;-59
2022/05/22 01:51:21;;;;;;;;;;;;;;;12.71;83.93;99030.38;5071476;28;1918;-59
2022/05/22 01:53:47;;;;;;;;;;;;;;;12.86;84.24;99023.25;5071513;28;806;-59
2022/05/22 01:56:13;;;;;;;;;;;;;;;12.98;84.03;99037.63;5071535;28;873;-59
2022/05/22 01:58:40;;;;;;;;;;;;;;;13.08;83.45;99025.47;5071467;28;847;-59
2022/05/22 02:01:08;;;;;;;;;;;;;;;13.17;83.02;99027.59;5071294;28;961;-59
2022/05/22 02:03:35;;;;;;;;;;;;;;;13.23;82.66;99025.84;5071467;28;834;-59
2022/05/22 02:06:02;;;;;;;;;;;;;;;13.25;82.52;99020.63;5053431;28;1463;-59
2022/05/22 02:08:29;;;;;;;;;;;;;;;13.21;82.91;99011.63;5071729;28;885;-59
2022/05/22 02:10:56;;;;;;;;;;;;;;;13.45;82.32;99009.38;5053227;28;1947;-59
2022/05/22 02:13:25;;;;;;;;;;;;;;;13.69;81.19;99005.06;5071308;28;881;-60
2022/05/22 02:15:52;;;;;;;;;;;;;;;13.98;79.75;99009.75;5071213;28;886;-60
2022/05/22 02:18:19;;;;;;;;;;;;;;;14.19;78.94;98999.16;5071309;28;818;-60
2022/05/22 02:20:47;;;;;;;;;;;;;;;14.37;77.37;98999.38;5074576;28;893;-65
2022/05/22 02:23:15;;;;;;;;;;;;;;;14.52;76.55;99012.78;5075285;28;827;-60
2022/05/22 02:25:46;;;;;;;;;;;;;;;14.56;76.42;99008.69;5075176;28;858;-60
2022/05/22 02:28:14;;;;;;;;;;;;;;;14.55;76.27;99003.53;5075207;28;834;-60
2022/05/22 02:30:44;;;;;;;;;;;;;;;14.50;76.58;99008.44;5075274;28;1950;-60
2022/05/22 02:33:11;;;;;;;;;;;;;;;14.48;76.77;99010.91;5075147;28;857;-59
2022/05/22 02:35:38;;;;;;;;;;;;;;;14.48;76.84;99012.91;5074971;28;928;-59
2022/05/22 02:38:05;;;;;;;;;;;;;;;14.48;76.77;99010.91;5075319;28;827;-60
2022/05/22 02:40:33;;;;;;;;;;;;;;;14.50;76.78;99014.00;5074776;28;822;-60
2022/05/22 02:43:01;;;;;;;;;;;;;;;14.47;77.00;99012.13;5074841;28;965;-60
2022/05/22 02:45:32;;;;;;;;;;;;;;;14.43;77.10;99014.25;5074751;28;822;-60
2022/05/22 02:47:59;;;;;;;;;;;;;;;14.36;77.57;99005.38;5074581;28;1492;-60
2022/05/22 02:50:27;;;;;;;;;;;;;;;14.32;77.93;99001.91;5074685;28;1976;-60
2022/05/22 02:52:54;;;;;;;;;;;;;;;14.25;77.85;98997.38;5074699;28;823;-60
2022/05/22 02:55:21;;;;;;;;;;;;;;;14.20;78.27;99000.72;5074619;28;1028;-59
2022/05/22 02:57:48;;;;;;;;;;;;;;;14.13;78.59;99012.09;5056744;28;823;-60
2022/05/22 03:00:16;;;;;;;;;;;;;;;14.02;79.18;98999.31;5074547;28;814;-61
2022/05/22 03:02:43;;;;;;;;;;;;;;;13.93;79.54;99001.97;5074478;28;819;-60
2022/05/22 03:05:10;;;;;;;;;;;;;;;13.91;79.98;99011.97;5074497;28;803;-60
2022/05/22 03:07:37;;;;;;;;;;;;;;;13.83;80.44;99014.97;5074409;28;822;-60
2022/05/22 03:10:05;;;;;;;;;;;;;;;13.80;80.76;99017.84;5056364;28;1939;-60
2022/05/22 03:12:32;;;;;;;;;;;;;;;13.74;81.20;99014.06;5074256;28;903;-59
2022/05/22 03:14:59;;;;;;;;;;;;;;;13.75;81.14;99002.53;5074364;28;798;-58
2022/05/22 03:17:26;;;;;;;;;;;;;;;13.85;81.53;99009.75;5056259;28;869;-59
2022/05/22 03:19:53;;;;;;;;;;;;;;;14.00;81.22;99010.09;5074218;28;814;-59
2022/05/22 03:22:20;;;;;;;;;;;;;;;14.18;80.79;99006.72;5056354;28;841;-59
2022/05/22 03:24:46;;;;;;;;;;;;;;;14.38;80.45;99003.72;5074140;28;877;-59
2022/05/22 03:27:13;;;;;;;;;;;;;;;14.54;80.52;99002.00;5074079;28;1001;-59
2022/05/22 03:29:41;;;;;;;;;;;;;;;14.70;79.95;98999.88;5074159;28;822;-59
2022/05/22 03:32:08;;;;;;;;;;;;;;;14.89;79.25;98998.03;5054807;28;933;-60
2022/05/22 03:34:35;;;;;;;;;;;;;;;15.04;77.82;99005.84;5074072;28;873;-61
2022/05/22 03:37:02;;;;;;;;;;;;;;;15.12;77.12;99001.59;5073956;28;865;-60
2022/05/22 03:39:29;;;;;;;;;;;;;;;15.13;76.82;98996.78;5073849;28;893;-59
2022/05/22 03:41:55;;;;;;;;;;;;;;;15.12;76.76;99001.59;5055968;28;874;-59
2022/05/22 03:44:22;;;;;;;;;;;;;;;15.18;76.39;98997.00;5073889;28;870;-59
2022/05/22 03:46:49;;;;;;;;;;;;;;;15.26;76.05;99000.31;5073721;28;904;-59
2022/05/22 03:49:16;;;;;;;;;;;;;;;15.31;75.74;98992.13;5073538;28;1441;-59
2022/05/22 03:51:43;;;;;;;;;;;;;;;15.44;75.29;98989.25;5073543;28;1977;-60
2022/05/22 03:54:10;;;;;;;;;;;;;;;15.56;75.18;98989.66;5073558;28;885;-59
2022/05/22 03:56:39;;;;;;;;;;;;;;;15.71;74.57;98987.84;5073565;28;846;-59
2022/05/22 03:59:05;;;;;;;;;;;;;;;15.83;74.39;98983.44;5073496;28;857;-59
2022/05/22 04:01:32;;;;;;;;;;;;;;;15.90;73.90;98983.94;5073465;28;845;-60
2022/05/22 04:03:58;;;;;;;;;;;;;;;16.01;73.44;98996.69;5073350;28;885;-60
2022/05/22 04:06:25;;;;;;;;;;;;;;;16.16;72.91;98997.66;5073404;28;814;-60
2022/05/22 04:08:51;;;;;;;;;;;;;;;16.27;72.71;98997.22;5073210;28;810;-64
2022/05/22 04:11:19;;;;;;;;;;;;;;;16.53;72.13;98995.69;5073211;28;1890;-60
2022/05/22 04:13:46;;;;;;;;;;;;;;;16.73;71.54;99000.84;5073184;28;790;-60
2022/05/22 04:16:13;;;;;;;;;;;;;;;16.84;71.27;98996.84;5073195;28;913;-60
2022/05/22 04:18:39;;;;;;;;;;;;;;;17.12;70.44;98997.63;5073222;28;891;-60
2022/05/22 04:21:05;;;;;;;;;;;;;;;17.42;69.87;98992.28;5072967;28;874;-60
2022/05/22 04:26:17;;;;;;;;;;;;;;;18.06;68.44;98997.69;5073297;28;935;-60
2022/05/22 04:28:43;;;;;;;;;;;;;;;18.26;67.57;98988.69;5072992;28;830;-60
2022/05/22 04:31:10;;;;;;;;;;;;;;;18.50;67.18;98988.72;5072810;28;1985;-60
2022/05/22 04:33:37;;;;;;;;;;;;;;;18.77;66.97;98984.94;5072759;28;806;-60
2022/05/22 04:36:04;;;;;;;;;;;;;;;19.03;66.51;98983.66;5073011;28;827;-60
2022/05/22 04:38:31;;;;;;;;;;;;;;;19.36;65.94;98986.31;5054681;28;911;-60
2022/05/22 04:40:59;;;;;;;;;;;;;;;19.63;65.55;98987.25;5072568;28;859;-61
2022/05/22 04:43:26;;;;;;;;;;;;;;;19.74;65.08;98995.91;5054467;28;854;-60
2022/05/22 04:45:53;;;;;;;;;;;;;;;19.91;64.64;98998.97;5072500;28;799;-60
2022/05/22 04:48:21;;;;;;;;;;;;;;;20.10;64.59;98993.88;5072408;28;1243;-59
2022/05/22 04:50:48;;;;;;;;;;;;;;;20.21;64.93;98991.25;5072310;28;1910;-65
2022/05/22 04:53:16;;;;;;;;;;;;;;;20.46;63.95;98992.63;5072345;28;882;-59
2022/05/22 04:55:43;;;;;;;;;;;;;;;20.67;63.31;98978.59;5072404;28;822;-59
2022/05/22 04:58:12;;;;;;;;;;;;;;;20.81;62.22;98989.00;5072311;28;866;-60
2022/05/22 05:00:39;;;;;;;;;;;;;;;20.94;62.37;98986.56;5072159;28;917;-58
2022/05/22 05:03:05;;;;;;;;;;;;;;;21.11;62.18;98994.44;5072204;28;893;-61
2022/05/22 05:05:34;;;;;;;;;;;;;;;21.32;61.47;98992.34;5072249;28;830;-61
2022/05/22 05:08:01;;;;;;;;;;;;;;;21.52;60.89;98995.09;5054257;28;847;-59
2022/05/22 05:10:27;;;;;;;;;;;;;;;21.68;59.09;98985.28;5072240;28;1909;-61
2022/05/22 05:12:54;;;;;;;;;;;;;;;21.66;58.29;98987.03;5071995;28;818;-59
2022/05/22 05:15:21;;;;;;;;;;;;;;;21.75;58.50;98984.81;5072067;28;873;-59
2022/05/22 05:17:48;;;;;;;;;;;;;;;21.78;58.65;98971.78;5071855;28;862;-59
2022/05/22 05:20:16;;;;;;;;;;;;;;;21.94;57.64;98973.19;5071975;28;807;-57
2022/05/22 05:22:43;;;;;;;;;;;;;;;22.02;57.24;98979.91;5071889;28;854;-62
2022/05/22 05:25:11;;;;;;;;;;;;;;;21.74;56.69;98971.25;5071874;28;858;-62
2022/05/22 05:27:38;;;;;;;;;;;;;;;21.56;57.00;98961.91;5072197;28;940;-68
2022/05/22 05:42:16;;;;;;;;;;;;;;;21.64;56.85;98987.53;5072004;28;612;-62
2022/05/22 05:44:43;;;;;;;;;;;;;;;21.55;57.37;98988.50;5071609;28;807;-61
2022/05/22 05:47:10;;;;;;;;;;;;;;;21.38;57.81;98998.78;5071310;28;1233;-60
2022/05/22 05:52:39;;;;;;;;;;;;;;;23.01;54.00;98999.88;5071661;28;612;-61
2022/05/22 05:55:05;;;;;;;;;;;;;;;23.91;51.10;98993.56;5070900;28;806;-60
2022/05/22 05:57:32;;;;;;;;;;;;;;;24.96;48.55;99003.56;5071762;28;837;-62
2022/05/22 05:59:58;;;;;;;;;;;;;;;25.31;47.01;98990.81;5072033;28;779;-59
2022/05/22 06:02:25;;;;;;;;;;;;;;;25.50;46.93;99000.19;5071791;28;827;-61
2022/05/22 06:04:52;;;;;;;;;;;;;;;25.79;46.20;98987.31;5071896;28;849;-60
2022/05/22 06:07:18;;;;;;;;;;;;;;;25.82;46.15;98983.44;5071358;28;873;-59
2022/05/22 06:09:44;;;;;;;;;;;;;;;26.17;45.87;98987.50;5071576;28;886;-60
2022/05/22 06:12:11;;;;;;;;;;;;;;;26.42;45.15;98981.84;5071255;28;1948;-60
2022/05/22 06:14:38;;;;;;;;;;;;;;;26.67;44.88;98983.38;5071285;28;1274;-61
2022/05/22 06:17:05;;;;;;;;;;;;;;;26.69;43.64;98974.31;5071246;28;843;-60
2022/05/22 06:22:16;;;;;;;;;;;;;;;24.52;48.96;98983.47;5071325;28;648;-60
2022/05/22 06:24:43;;;;;;;;;;;;;;;23.50;51.60;98976.38;5071139;28;894;-60
2022/05/22 06:27:10;;;;;;;;;;;;;;;23.13;53.38;98991.44;5071501;28;879;-60
2022/05/22 06:29:37;;;;;;;;;;;;;;;24.11;51.67;98986.88;5071205;28;807;-61
2022/05/22 06:32:05;;;;;;;;;;;;;;;25.01;47.84;98983.75;5071075;28;1882;-60
2022/05/22 06:37:46;;;;;;;;;;;;;;;26.24;45.03;98992.59;5071072;28;676;-59
2022/05/22 06:40:13;;;;;;;;;;;;;;;26.15;45.24;98986.50;5071196;28;818;-61
2022/05/22 06:42:42;;;;;;;;;;;;;;;26.71;44.77;99000.06;5053247;28;846;-62
2022/05/22 06:57:58;;;;;;;;;;;;;;;27.38;42.72;99001.25;5051027;28;708;-59
2022/05/22 07:00:27;;;;;;;;;;;;;;;27.67;42.19;99001.56;5051119;28;854;-59
2022/05/22 07:02:53;;;;;;;;;;;;;;;27.77;41.17;99008.38;5050920;28;867;-59
2022/05/22 07:05:20;;;;;;;;;;;;;;;27.89;40.92;99021.09;5051742;28;807;-59
2022/05/22 07:07:47;;;;;;;;;;;;;;;27.82;41.34;99012.41;5054384;28;864;-59
2022/05/22 07:10:14;;;;;;;;;;;;;;;28.02;41.19;99013.94;5054513;28;1975;-58
2022/05/22 07:12:41;;;;;;;;;;;;;;;28.30;40.36;99010.56;5054304;28;837;-59
2022/05/22 07:15:07;;;;;;;;;;;;;;;28.27;41.05;99011.66;5054678;28;846;-60
2022/05/22 07:17:34;;;;;;;;;;;;;;;28.83;40.51;99021.19;5054171;28;863;-59
2022/05/22 07:20:00;;;;;;;;;;;;;;;28.94;39.99;99020.19;5054236;28;838;-59
2022/05/22 07:22:27;;;;;;;;;;;;;;;28.67;39.67;99018.13;5054201;28;818;-59
2022/05/22 07:24:54;;;;;;;;;;;;;;;28.64;39.57;99027.75;5054348;28;870;-58
2022/05/22 07:27:21;;;;;;;;;;;;;;;28.87;39.35;99028.06;5053922;28;1089;-58
2022/05/22 07:29:48;;;;;;;;;;;;;;;29.40;39.39;99035.72;5054084;28;791;-59
2022/05/22 07:32:20;;;;;;;;;;;;;;;30.05;38.18;99041.72;5053902;28;1890;-59
2022/05/22 07:34:50;;;;;;;;;;;;;;;29.53;38.40;99029.22;5053973;28;873;-59
2022/05/22 07:37:17;;;;;;;;;;;;;;;29.11;39.16;99024.22;5054014;28;802;-60
2022/05/22 07:39:43;;;;;;;;;;;;;;;29.71;37.60;99034.00;5054872;28;830;-59
2022/05/22 07:42:10;;;;;;;;;;;;;;;30.16;36.81;99017.09;5054832;28;802;-59
2022/05/22 07:44:37;;;;;;;;;;;;;;;30.04;37.22;99028.00;5054473;28;755;-59
2022/05/22 07:47:04;;;;;;;;;;;;;;;30.33;38.16;99034.53;5054098;28;862;-59
2022/05/22 07:52:16;;;;;;;;;;;;;;;30.66;36.92;99029.22;5053612;28;762;-61
2022/05/22 07:54:43;;;;;;;;;;;;;;;31.05;36.63;99025.25;5053509;28;887;-60
2022/05/22 07:57:09;;;;;;;;;;;;;;;30.77;36.73;99036.69;5067402;28;1482;-60
2022/05/22 07:59:37;;;;;;;;;;;;;;;30.81;37.25;99043.59;5073485;28;822;-60
2022/05/22 08:02:06;;;;;;;;;;;;;;;30.94;37.30;99034.16;5073579;28;806;-59
2022/05/22 08:16:43;;;;;;;;;;;;;;;32.09;34.98;99033.69;5072797;28;617;-59
2022/05/22 08:19:10;;;;;;;;;;;;;;;31.95;34.23;99035.94;5073087;28;977;-59
2022/05/22 08:21:38;;;;;;;;;;;;;;;32.27;35.26;99028.91;5072970;28;921;-59
2022/05/22 08:24:05;;;;;;;;;;;;;;;32.47;34.16;99030.03;5072996;28;894;-59
2022/05/22 08:26:31;;;;;;;;;;;;;;;31.84;34.99;99034.22;5072895;28;1325;-59
2022/05/22 08:28:58;;;;;;;;;;;;;;;32.46;34.37;99028.53;5073088;28;909;-59
2022/05/22 08:31:25;;;;;;;;;;;;;;;33.70;32.87;99027.47;5072989;28;1960;-59
2022/05/22 08:33:52;;;;;;;;;;;;;;;33.86;32.67;99030.22;5072802;28;895;-59
2022/05/22 08:36:18;;;;;;;;;;;;;;;32.50;34.38;99032.50;5054760;28;1711;-59
2022/05/22 08:50:57;;;;;;;;;;;;;;;29.00;37.11;99032.97;5072830;28;1915;-59
2022/05/22 08:53:28;;;;;;;;;;;;;;;28.64;39.30;99029.84;5072413;28;837;-61
2022/05/22 08:58:59;;;;;;;;;;;;;;;27.52;41.66;99032.50;5072638;28;633;-59
2022/05/22 09:01:35;;;;;;;;;;;;;;;27.35;42.90;99030.69;5072172;28;889;-59
2022/05/22 09:04:09;;;;;;;;;;;;;;;27.11;43.56;99030.75;5072439;28;798;-60
2022/05/22 09:06:39;;;;;;;;;;;;;;;26.56;44.46;99034.50;5072145;28;821;-59
2022/05/22 09:09:06;;;;;;;;;;;;;;;26.11;45.56;99032.09;5072466;28;865;-59
2022/05/22 09:11:39;;;;;;;;;;;;;;;25.86;46.92;99036.91;5071935;28;1906;-60
2022/05/22 09:14:29;;;;;;;;;;;;;;;25.73;47.30;99031.88;5072090;28;803;-60
2022/05/22 09:17:11;;;;;;;;;;;;;;;25.62;48.30;99037.63;5061606;28;1386;-60
2022/05/22 09:19:44;;;;;;;;;;;;;;;25.66;48.70;99038.88;5071978;28;802;-59
2022/05/22 09:22:21;;;;;;;;;;;;;;;25.62;48.14;99032.72;5071885;28;866;-60
2022/05/22 09:28:16;;;;;;;;;;;;;;;25.59;47.93;99028.13;5072270;28;1036;-60
2022/05/22 09:30:42;;;;;;;;;;;;;;;25.91;48.10;99032.56;5071775;28;1902;-59
2022/05/22 09:33:27;;;;;;;;;;;;;;;26.43;47.49;99015.28;5071978;28;834;-59
2022/05/22 09:36:10;;;;;;;;;;;;;;;27.18;46.75;99025.22;5071966;28;818;-59
2022/05/22 09:39:00;;;;;;;;;;;;;;;28.00;44.87;99017.31;5071727;28;786;-59
2022/05/22 09:41:43;;;;;;;;;;;;;;;28.75;42.58;99011.78;5060763;28;1723;-59
2022/05/22 09:44:25;;;;;;;;;;;;;;;28.90;41.73;99009.91;5071637;28;831;-59
2022/05/22 09:47:01;;;;;;;;;;;;;;;28.60;42.26;99009.50;5071584;28;925;-59
2022/05/22 09:49:43;;;;;;;;;;;;;;;28.35;42.27;99006.09;5071578;28;845;-60
2022/05/22 09:52:26;;;;;;;;;;;;;;;27.80;42.18;99004.47;5071512;28;1890;-59
2022/05/22 09:55:09;;;;;;;;;;;;;;;27.87;42.52;99003.84;5071512;28;884;-60
2022/05/22 09:57:35;;;;;;;;;;;;;;;28.18;42.19;99003.56;5071275;28;1300;-59
2022/05/22 10:28:32;;;;;;;;;;;;;;;29.34;39.89;98988.78;5089354;22;1708;-60
2022/05/22 10:31:12;;;;;;;;;;;;;;;30.02;38.58;98979.38;5051672;28;2013;-59
2022/05/22 10:33:39;;;;;;;;;;;;;;;29.54;37.92;98978.75;5050793;28;913;-59
2022/05/22 10:36:13;;;;;;;;;;;;;;;29.99;36.99;98974.81;5051107;28;849;-59
2022/05/22 10:38:54;;;;;;;;;;;;;;;30.51;35.69;98970.03;5051617;28;787;-58
2022/05/22 10:44:13;;;;;;;;;;;;;;;30.45;34.08;98950.25;5055247;28;730;-57
2022/05/22 10:46:49;;;;;;;;;;;;;;;29.31;36.18;98968.66;5054773;28;934;-59
2022/05/22 10:49:16;;;;;;;;;;;;;;;28.14;34.39;98955.59;5055085;28;873;-59
2022/05/22 10:51:53;;;;;;;;;;;;;;;27.79;34.64;98962.41;5054645;28;1957;-59
2022/05/22 10:54:25;;;;;;;;;;;;;;;27.68;36.04;98958.44;5054732;28;799;-59
2022/05/22 10:56:52;;;;;;;;;;;;;;;27.71;37.33;98948.09;5055118;28;822;-58
2022/05/22 10:59:20;;;;;;;;;;;;;;;28.03;37.93;98959.41;5054936;28;809;-59
2022/05/22 11:01:56;;;;;;;;;;;;;;;28.03;38.67;98956.56;5054679;28;896;-60
2022/05/22 11:04:33;;;;;;;;;;;;;;;28.34;39.63;98945.66;5054392;28;926;-59
2022/05/22 11:07:00;;;;;;;;;;;;;;;29.54;39.64;98945.38;5054764;28;787;-57
2022/05/22 11:09:33;;;;;;;;;;;;;;;30.74;36.71;98936.66;5054380;28;842;-57
2022/05/22 11:12:14;;;;;;;;;;;;;;;31.78;35.32;98939.38;5054233;28;1914;-58
2022/05/22 11:14:41;;;;;;;;;;;;;;;31.88;36.25;98946.06;5054266;28;959;-59
2022/05/22 11:17:21;;;;;;;;;;;;;;;30.73;37.78;98948.66;5054261;28;830;-59
2022/05/22 11:19:57;;;;;;;;;;;;;;;29.29;40.07;98954.22;5054250;28;810;-57
2022/05/22 11:22:42;;;;;;;;;;;;;;;28.17;41.57;98962.28;5054117;28;854;-57
2022/05/22 11:25:17;;;;;;;;;;;;;;;27.33;43.06;98951.00;5054152;28;870;-57
2022/05/22 11:28:04;;;;;;;;;;;;;;;27.46;43.95;98948.25;5053872;28;1225;-59
2022/05/22 11:30:36;;;;;;;;;;;;;;;27.73;44.20;98945.47;5053752;28;1906;-57
2022/05/22 11:33:15;;;;;;;;;;;;;;;27.49;44.19;98941.47;5054059;28;1021;-58
2022/05/22 11:35:48;;;;;;;;;;;;;;;27.49;44.42;98946.41;5054115;28;934;-58
2022/05/22 11:38:34;;;;;;;;;;;;;;;27.79;44.36;98951.81;5054128;28;843;-58
2022/05/22 11:41:13;;;;;;;;;;;;;;;27.89;44.26;98941.59;5053899;28;849;-58
2022/05/22 11:43:55;;;;;;;;;;;;;;;28.29;42.87;98941.63;5054016;28;802;-58
2022/05/22 11:46:24;;;;;;;;;;;;;;;29.30;41.91;98943.63;5053808;28;842;-57
2022/05/22 11:49:10;;;;;;;;;;;;;;;29.74;40.93;98940.25;5053623;28;874;-57
2022/05/22 11:51:48;;;;;;;;;;;;;;;29.50;40.96;98934.31;5021293;28;1934;-59
2022/05/22 11:54:24;;;;;;;;;;;;;;;29.67;40.29;98938.84;5053626;28;850;-57
2022/05/22 11:56:50;;;;;;;;;;;;;;;30.46;39.59;98928.19;5053694;28;779;-57
2022/05/22 11:59:45;;;;;;;;;;;;;;;30.83;38.72;98924.00;5053448;28;949;-57
2022/05/22 12:02:24;;;;;;;;;;;;;;;31.73;37.81;98926.06;5030504;28;1126;-58
2022/05/22 12:04:53;;;;;;;;;;;;;;;32.24;36.32;98913.63;5053336;28;930;-59
2022/05/22 12:07:28;;;;;;;;;;;;;;;31.85;35.36;98909.28;5053314;28;869;-58
2022/05/22 12:10:22;;;;;;;;;;;;;;;31.73;35.41;98915.41;5053311;28;822;-57
2022/05/22 12:12:54;;;;;;;;;;;;;;;31.84;35.83;98917.09;5050879;28;1234;-59
2022/05/22 12:15:39;;;;;;;;;;;;;;;31.76;34.63;98916.34;5053203;28;927;-57
2022/05/22 12:18:24;;;;;;;;;;;;;;;31.66;35.12;98912.53;5053421;28;810;-57
2022/05/22 12:21:06;;;;;;;;;;;;;;;32.57;33.73;98910.88;5053023;28;948;-58
2022/05/22 12:23:38;;;;;;;;;;;;;;;31.56;34.60;98923.78;5053148;28;846;-57
2022/05/22 12:26:08;;;;;;;;;;;;;;;30.73;35.28;98906.63;5053007;28;1014;-57
2022/05/22 12:28:46;;;;;;;;;;;;;;;29.69;37.22;98922.75;5038482;28;1421;-56
2022/05/22 12:31:19;;;;;;;;;;;;;;;29.85;37.16;98915.09;5032761;28;1914;-58
2022/05/22 12:33:46;;;;;;;;;;;;;;;29.11;38.12;98909.69;5032946;28;819;-57
2022/05/22 12:36:16;;;;;;;;;;;;;;;28.14;39.35;98912.97;5032863;28;842;-57
2022/05/22 12:38:51;;;;;;;;;;;;;;;27.82;40.03;98918.72;5033441;28;798;-56
2022/05/22 12:41:27;;;;;;;;;;;;;;;28.52;39.08;98909.16;5032712;28;828;-57
2022/05/22 12:43:55;;;;;;;;;;;;;;;30.60;35.76;98912.50;5032723;28;920;-58
2022/05/22 12:46:24;;;;;;;;;;;;;;;31.83;33.84;98912.72;5032708;28;846;-57
2022/05/22 12:48:51;;;;;;;;;;;;;;;31.34;34.14;98911.75;5014966;28;850;-58
2022/05/22 12:51:19;;;;;;;;;;;;;;;31.29;33.53;98909.84;5032426;28;1943;-57
2022/05/22 12:53:50;;;;;;;;;;;;;;;30.47;34.35;98918.31;5032532;28;893;-57
2022/05/22 12:56:19;;;;;;;;;;;;;;;30.44;35.46;98916.59;5032410;28;839;-57
2022/05/22 12:58:56;;;;;;;;;;;;;;;29.78;35.55;98912.94;5032438;28;803;-56
2022/05/22 13:01:32;;;;;;;;;;;;;;;28.85;36.55;98911.28;5032432;28;798;-56
2022/05/22 13:04:01;;;;;;;;;;;;;;;27.85;38.37;98917.66;5031997;28;945;-56
2022/05/22 13:06:33;;;;;;;;;;;;;;;27.25;39.38;98914.03;5032327;28;878;-57
2022/05/22 13:09:07;;;;;;;;;;;;;;;27.24;40.12;98917.38;5032287;28;794;-56
2022/05/22 13:11:41;;;;;;;;;;;;;;;27.34;39.99;98912.09;5032107;28;1890;-57
2022/05/22 13:14:20;;;;;;;;;;;;;;;27.33;40.81;98902.78;5032215;28;858;-56
2022/05/22 13:16:48;;;;;;;;;;;;;;;27.12;41.59;98899.78;5032101;28;791;-56
2022/05/22 13:19:29;;;;;;;;;;;;;;;27.04;41.44;98893.94;5031981;28;847;-57
2022/05/22 13:21:56;;;;;;;;;;;;;;;27.29;41.05;98891.03;5032036;28;818;-56
2022/05/22 13:24:27;;;;;;;;;;;;;;;27.75;40.19;98891.75;5031926;28;897;-57
2022/05/22 13:26:58;;;;;;;;;;;;;;;28.33;39.68;98883.69;5032233;28;1386;-57
2022/05/22 13:29:28;;;;;;;;;;;;;;;28.65;38.75;98890.00;5051735;28;869;-57
2022/05/22 13:31:57;;;;;;;;;;;;;;;28.01;38.92;98887.44;5052094;28;1918;-57
2022/05/22 13:34:28;;;;;;;;;;;;;;;27.62;38.83;98891.75;5051941;28;799;-56
2022/05/22 13:36:57;;;;;;;;;;;;;;;27.29;39.12;98882.50;5051657;28;842;-57
2022/05/22 13:39:31;;;;;;;;;;;;;;;27.00;39.41;98884.22;5051590;28;935;-57
2022/05/22 13:42:12;;;;;;;;;;;;;;;26.50;39.93;98883.63;5051836;28;811;-57
2022/05/22 13:45:03;;;;;;;;;;;;;;;26.56;40.20;98884.31;5051584;28;862;-58
2022/05/22 13:47:42;;;;;;;;;;;;;;;26.67;40.35;98878.53;5051450;28;856;-58
2022/05/22 13:53:22;;;;;;;;;;;;;;;25.94;40.08;98885.06;5017540;28;1287;-57
2022/05/22 13:55:50;;;;;;;;;;;;;;;25.16;40.95;98889.34;5051506;28;826;-57
2022/05/22 13:58:30;;;;;;;;;;;;;;;24.55;41.89;98889.19;5051687;28;869;-57
2022/05/22 14:01:00;;;;;;;;;;;;;;;24.30;42.60;98882.59;5051386;28;798;-58
2022/05/22 14:03:33;;;;;;;;;;;;;;;24.73;42.43;98875.75;5051541;28;838;-57
2022/05/22 14:06:04;;;;;;;;;;;;;;;25.76;40.19;98880.84;5051308;28;856;-57
2022/05/22 14:08:36;;;;;;;;;;;;;;;26.21;38.61;98886.03;5051537;28;799;-57
2022/05/22 14:11:12;;;;;;;;;;;;;;;26.16;38.69;98875.56;5033365;28;1917;-56
2022/05/22 14:13:37;;;;;;;;;;;;;;;25.67;39.21;98869.88;5051199;28;859;-57
2022/05/22 14:16:06;;;;;;;;;;;;;;;24.73;40.58;98878.56;5053498;28;1038;-57
2022/05/22 14:18:34;;;;;;;;;;;;;;;24.03;41.89;98870.16;5055383;28;901;-56
2022/05/22 14:21:10;;;;;;;;;;;;;;;24.35;41.56;98869.78;5055444;28;825;-56
2022/05/22 14:26:32;;;;;;;;;;;;;;;26.36;38.60;98868.59;5055840;28;1014;-57
2022/05/22 14:28:59;;;;;;;;;;;;;;;27.10;37.89;98868.34;5055043;28;1312;-57
2022/05/22 14:31:26;;;;;;;;;;;;;;;27.36;36.83;98875.44;5055558;28;1980;-59
2022/05/22 14:43:53;;;;;;;;;;;;;;;27.09;35.38;98863.97;5054956;28;702;-57
2022/05/22 14:46:23;;;;;;;;;;;;;;;26.57;36.65;98862.44;5054807;28;1014;-58
2022/05/22 14:48:50;;;;;;;;;;;;;;;26.66;37.22;98862.03;5054778;28;937;-58
2022/05/22 14:51:20;;;;;;;;;;;;;;;26.99;36.29;98860.78;5054592;28;1967;-57
2022/05/22 14:53:47;;;;;;;;;;;;;;;27.23;36.36;98861.97;5054725;28;854;-58
2022/05/22 14:56:18;;;;;;;;;;;;;;;26.99;35.94;98868.50;5054585;28;889;-57
2022/05/22 14:59:20;;;;;;;;;;;;;;;26.46;36.96;98861.25;5054735;28;790;-58
2022/05/22 15:01:52;;;;;;;;;;;;;;;26.52;36.71;98860.41;4990164;28;1383;-57
2022/05/22 15:04:22;;;;;;;;;;;;;;;26.67;36.87;98858.69;4993284;28;1541;-57
2022/05/22 15:06:57;;;;;;;;;;;;;;;26.67;36.87;98855.84;4993150;28;930;-58
2022/05/22 15:09:28;;;;;;;;;;;;;;;26.72;36.96;98861.97;4993037;28;898;-57
2022/05/22 15:11:55;;;;;;;;;;;;;;;26.81;36.39;98855.91;4993030;28;1949;-57
2022/05/22 15:14:26;;;;;;;;;;;;;;;26.68;36.58;98867.94;4992987;28;855;-57
2022/05/22 15:16:55;;;;;;;;;;;;;;;26.60;37.14;98861.34;4992926;28;961;-58